sensor_id;sensor_type;location;lat;lon;timestamp;pressure;altitude;pressure_sealevel;temperature;humidity
6218;BME280;3142;48.206;11.550;2023-02-23T00:01:57;95371.41;;;11.81;58.77
6218;BME280;3142;48.206;11.550;2023-02-23T00:04:31;95377.44;;;11.81;58.24
6218;BME280;3142;48.206;11.550;2023-02-23T00:06:57;95371.19;;;11.76;58.64
6218;BME280;3142;48.206;11.550;2023-02-23T00:09:24;95363.19;;;11.71;59.30
6218;BME280;3142;48.206;11.550;2023-02-23T00:11:53;95369.00;;;11.73;58.72
6218;BME280;3142;48.206;11.550;2023-02-23T00:14:20;95365.16;;;11.75;59.23
6218;BME280;3142;48.206;11.550;2023-02-23T00:16:50;95366.41;;;11.73;58.89
6218;BME280;3142;48.206;11.550;2023-02-23T00:19:16;95373.69;;;11.71;59.12
6218;BME280;3142;48.206;11.550;2023-02-23T00:21:42;95373.09;;;11.69;59.46
6218;BME280;3142;48.206;11.550;2023-02-23T00:24:10;95372.28;;;11.68;59.89
6218;BME280;3142;48.206;11.550;2023-02-23T00:26:40;95371.50;;;11.68;59.43
6218;BME280;3142;48.206;11.550;2023-02-23T00:29:10;95377.75;;;11.67;59.78
6218;BME280;3142;48.206;11.550;2023-02-23T00:31:37;95366.47;;;11.66;59.90
6218;BME280;3142;48.206;11.550;2023-02-23T00:34:05;95377.34;;;11.63;59.46
6218;BME280;3142;48.206;11.550;2023-02-23T00:36:33;95370.28;;;11.64;59.44
6218;BME280;3142;48.206;11.550;2023-02-23T00:39:03;95378.16;;;11.64;59.66
6218;BME280;3142;48.206;11.550;2023-02-23T00:41:43;95376.97;;;11.60;59.87
6218;BME280;3142;48.206;11.550;2023-02-23T00:44:09;95380.63;;;11.58;60.01
6218;BME280;3142;48.206;11.550;2023-02-23T00:46:36;95385.28;;;11.56;60.36
6218;BME280;3142;48.206;11.550;2023-02-23T00:49:02;95383.69;;;11.55;60.51
6218;BME280;3142;48.206;11.550;2023-02-23T00:51:30;95388.34;;;11.53;60.86
6218;BME280;3142;48.206;11.550;2023-02-23T00:53:57;95389.34;;;11.52;60.43
6218;BME280;3142;48.206;11.550;2023-02-23T00:56:25;95388.34;;;11.53;60.55
6218;BME280;3142;48.206;11.550;2023-02-23T00:58:52;95379.69;;;11.46;60.63
6218;BME280;3142;48.206;11.550;2023-02-23T01:01:19;95373.22;;;11.49;61.04
6218;BME280;3142;48.206;11.550;2023-02-23T01:03:46;95379.88;;;11.51;60.80
6218;BME280;3142;48.206;11.550;2023-02-23T01:06:14;95380.50;;;11.47;61.10
6218;BME280;3142;48.206;11.550;2023-02-23T01:08:44;95378.47;;;11.49;61.00
6218;BME280;3142;48.206;11.550;2023-02-23T01:11:15;95377.31;;;11.45;61.29
6218;BME280;3142;48.206;11.550;2023-02-23T01:13:43;95369.44;;;11.45;61.29
6218;BME280;3142;48.206;11.550;2023-02-23T01:16:13;95376.72;;;11.43;60.83
6218;BME280;3142;48.206;11.550;2023-02-23T01:18:41;95374.31;;;11.41;61.52
6218;BME280;3142;48.206;11.550;2023-02-23T01:21:13;95374.09;;;11.43;61.18
6218;BME280;3142;48.206;11.550;2023-02-23T01:23:42;95376.94;;;11.41;61.38
6218;BME280;3142;48.206;11.550;2023-02-23T01:26:14;95374.75;;;11.38;61.89
6218;BME280;3142;48.206;11.550;2023-02-23T01:28:40;95376.56;;;11.38;61.25
6218;BME280;3142;48.206;11.550;2023-02-23T01:31:07;95369.50;;;11.38;61.53
6218;BME280;3142;48.206;11.550;2023-02-23T01:33:33;95370.31;;;11.39;61.95
6218;BME280;3142;48.206;11.550;2023-02-23T01:36:00;95365.88;;;11.39;62.02
6218;BME280;3142;48.206;11.550;2023-02-23T01:38:26;95368.31;;;11.34;61.95
6218;BME280;3142;48.206;11.550;2023-02-23T01:40:54;95366.50;;;11.35;62.02
6218;BME280;3142;48.206;11.550;2023-02-23T01:43:21;95363.34;;;11.26;62.60
6218;BME280;3142;48.206;11.550;2023-02-23T01:45:53;95377.25;;;11.26;62.54
6218;BME280;3142;48.206;11.550;2023-02-23T01:48:22;95371.56;;;11.30;62.07
6218;BME280;3142;48.206;11.550;2023-02-23T01:50:53;95372.59;;;11.28;62.44
6218;BME280;3142;48.206;11.550;2023-02-23T01:53:21;95370.41;;;11.25;62.74
6218;BME280;3142;48.206;11.550;2023-02-23T01:55:50;95375.19;;;11.28;63.07
6218;BME280;3142;48.206;11.550;2023-02-23T01:58:21;95369.78;;;11.23;63.04
6218;BME280;3142;48.206;11.550;2023-02-23T02:00:50;95373.22;;;11.24;62.97
6218;BME280;3142;48.206;11.550;2023-02-23T02:03:23;95364.97;;;11.20;62.92
6218;BME280;3142;48.206;11.550;2023-02-23T02:05:52;95363.38;;;11.19;62.75
6218;BME280;3142;48.206;11.550;2023-02-23T02:08:21;95369.41;;;11.20;63.27
6218;BME280;3142;48.206;11.550;2023-02-23T02:10:48;95364.44;;;11.12;63.46
6218;BME280;3142;48.206;11.550;2023-02-23T02:13:23;95368.66;;;11.13;63.67
6218;BME280;3142;48.206;11.550;2023-02-23T02:16:19;95361.78;;;11.18;63.39
6218;BME280;3142;48.206;11.550;2023-02-23T02:19:05;95364.16;;;11.20;63.42
6218;BME280;3142;48.206;11.550;2023-02-23T02:22:04;95352.75;;;11.14;63.27
6218;BME280;3142;48.206;11.550;2023-02-23T02:25:03;95347.88;;;11.18;63.24
6218;BME280;3142;48.206;11.550;2023-02-23T02:27:54;95345.50;;;11.10;63.63
6218;BME280;3142;48.206;11.550;2023-02-23T02:30:47;95343.31;;;11.07;63.74
6218;BME280;3142;48.206;11.550;2023-02-23T02:33:50;95336.25;;;11.07;63.73
6218;BME280;3142;48.206;11.550;2023-02-23T02:36:44;95340.44;;;11.15;63.45
6218;BME280;3142;48.206;11.550;2023-02-23T02:39:16;95338.41;;;11.17;63.42
6218;BME280;3142;48.206;11.550;2023-02-23T02:41:54;95341.03;;;11.17;63.34
6218;BME280;3142;48.206;11.550;2023-02-23T02:44:29;95340.25;;;11.16;63.48
6218;BME280;3142;48.206;11.550;2023-02-23T02:47:03;95335.44;;;11.13;63.55
6218;BME280;3142;48.206;11.550;2023-02-23T02:49:37;95338.25;;;11.12;63.61
6218;BME280;3142;48.206;11.550;2023-02-23T02:52:15;95332.63;;;11.08;63.75
6218;BME280;3142;48.206;11.550;2023-02-23T02:54:46;95335.03;;;11.10;63.68
6218;BME280;3142;48.206;11.550;2023-02-23T02:57:17;95342.47;;;11.13;63.58
6218;BME280;3142;48.206;11.550;2023-02-23T02:59:47;95337.47;;;11.11;63.50
6218;BME280;3142;48.206;11.550;2023-02-23T03:02:32;95347.75;;;11.06;63.71
6218;BME280;3142;48.206;11.550;2023-02-23T03:05:19;95346.34;;;11.04;63.84
6218;BME280;3142;48.206;11.550;2023-02-23T03:08:10;95341.94;;;11.04;63.98
6218;BME280;3142;48.206;11.550;2023-02-23T03:11:01;95348.59;;;11.00;63.99
6218;BME280;3142;48.206;11.550;2023-02-23T03:13:52;95342.78;;;10.98;64.20
6218;BME280;3142;48.206;11.550;2023-02-23T03:16:45;95347.22;;;10.97;63.84
6218;BME280;3142;48.206;11.550;2023-02-23T03:19:35;95352.84;;;10.94;64.20
6218;BME280;3142;48.206;11.550;2023-02-23T03:22:24;95351.47;;;10.92;64.38
6218;BME280;3142;48.206;11.550;2023-02-23T03:25:14;95349.63;;;10.92;64.46
6218;BME280;3142;48.206;11.550;2023-02-23T03:28:05;95355.47;;;10.94;64.29
6218;BME280;3142;48.206;11.550;2023-02-23T03:30:59;95357.50;;;10.92;64.60
6218;BME280;3142;48.206;11.550;2023-02-23T03:33:53;95354.88;;;10.92;64.15
6218;BME280;3142;48.206;11.550;2023-02-23T03:36:45;95348.25;;;10.90;64.43
6218;BME280;3142;48.206;11.550;2023-02-23T03:39:36;95349.84;;;10.91;64.58
6218;BME280;3142;48.206;11.550;2023-02-23T03:42:26;95345.00;;;10.94;64.62
6218;BME280;3142;48.206;11.550;2023-02-23T03:45:14;95352.63;;;10.96;64.29
6218;BME280;3142;48.206;11.550;2023-02-23T03:48:02;95352.91;;;10.81;64.32
6218;BME280;3142;48.206;11.550;2023-02-23T03:50:51;95358.56;;;10.78;64.69
6218;BME280;3142;48.206;11.550;2023-02-23T03:53:41;95363.06;;;10.71;64.76
6218;BME280;3142;48.206;11.550;2023-02-23T03:56:30;95359.03;;;10.68;64.94
6218;BME280;3142;48.206;11.550;2023-02-23T03:59:22;95363.81;;;10.78;64.94
6218;BME280;3142;48.206;11.550;2023-02-23T04:02:09;95354.16;;;10.79;64.97
6218;BME280;3142;48.206;11.550;2023-02-23T04:04:55;95359.94;;;10.87;64.62
6218;BME280;3142;48.206;11.550;2023-02-23T04:07:42;95361.13;;;10.91;64.79
6218;BME280;3142;48.206;11.550;2023-02-23T04:10:30;95371.38;;;10.93;64.38
6218;BME280;3142;48.206;11.550;2023-02-23T04:13:18;95365.78;;;10.89;64.29
6218;BME280;3142;48.206;11.550;2023-02-23T04:15:49;95372.84;;;10.82;64.63
6218;BME280;3142;48.206;11.550;2023-02-23T04:18:19;95368.44;;;10.83;64.86
6218;BME280;3142;48.206;11.550;2023-02-23T04:20:47;95361.19;;;10.85;64.66
6218;BME280;3142;48.206;11.550;2023-02-23T04:23:13;95370.78;;;10.91;64.65
6218;BME280;3142;48.206;11.550;2023-02-23T04:25:39;95359.31;;;10.92;64.54
6218;BME280;3142;48.206;11.550;2023-02-23T04:28:06;95368.00;;;10.86;64.75
6218;BME280;3142;48.206;11.550;2023-02-23T04:30:32;95372.84;;;10.82;65.08
6218;BME280;3142;48.206;11.550;2023-02-23T04:33:00;95363.66;;;10.73;65.10
6218;BME280;3142;48.206;11.550;2023-02-23T04:35:27;95369.75;;;10.60;65.25
6218;BME280;3142;48.206;11.550;2023-02-23T04:37:55;95369.75;;;10.54;65.01
6218;BME280;3142;48.206;11.550;2023-02-23T04:40:22;95370.16;;;10.51;65.03
6218;BME280;3142;48.206;11.550;2023-02-23T04:42:49;95363.97;;;10.38;65.90
6218;BME280;3142;48.206;11.550;2023-02-23T04:45:15;95366.22;;;10.35;65.57
6218;BME280;3142;48.206;11.550;2023-02-23T04:47:42;95368.03;;;10.34;65.85
6218;BME280;3142;48.206;11.550;2023-02-23T04:50:11;95360.97;;;10.42;65.63
6218;BME280;3142;48.206;11.550;2023-02-23T04:52:37;95369.56;;;10.49;65.77
6218;BME280;3142;48.206;11.550;2023-02-23T04:55:05;95369.63;;;10.42;65.31
6218;BME280;3142;48.206;11.550;2023-02-23T04:57:32;95370.00;;;10.39;65.44
6218;BME280;3142;48.206;11.550;2023-02-23T04:59:59;95373.84;;;10.43;65.75
6218;BME280;3142;48.206;11.550;2023-02-23T05:02:26;95375.81;;;10.48;65.64
6218;BME280;3142;48.206;11.550;2023-02-23T05:04:52;95377.41;;;10.55;65.38
6218;BME280;3142;48.206;11.550;2023-02-23T05:07:20;95369.94;;;10.59;65.79
6218;BME280;3142;48.206;11.550;2023-02-23T05:09:47;95375.41;;;10.57;65.80
6218;BME280;3142;48.206;11.550;2023-02-23T05:12:13;95376.78;;;10.60;65.57
6218;BME280;3142;48.206;11.550;2023-02-23T05:14:40;95374.97;;;10.60;65.53
6218;BME280;3142;48.206;11.550;2023-02-23T05:17:06;95376.84;;;10.40;65.93
6218;BME280;3142;48.206;11.550;2023-02-23T05:19:33;95376.84;;;10.47;65.58
6218;BME280;3142;48.206;11.550;2023-02-23T05:21:59;95377.47;;;10.35;65.80
6218;BME280;3142;48.206;11.550;2023-02-23T05:24:27;95372.28;;;10.29;65.79
6218;BME280;3142;48.206;11.550;2023-02-23T05:26:53;95372.44;;;10.34;66.08
6218;BME280;3142;48.206;11.550;2023-02-23T05:29:20;95374.88;;;10.29;66.46
6218;BME280;3142;48.206;11.550;2023-02-23T05:31:46;95380.72;;;10.18;66.83
6218;BME280;3142;48.206;11.550;2023-02-23T05:34:13;95383.75;;;10.21;66.68
6218;BME280;3142;48.206;11.550;2023-02-23T05:36:41;95382.09;;;10.27;66.69
6218;BME280;3142;48.206;11.550;2023-02-23T05:39:07;95380.91;;;10.29;66.40
6218;BME280;3142;48.206;11.550;2023-02-23T05:41:35;95382.91;;;10.34;66.88
6218;BME280;3142;48.206;11.550;2023-02-23T05:44:01;95392.97;;;10.30;66.61
6218;BME280;3142;48.206;11.550;2023-02-23T05:46:28;95381.50;;;10.31;66.18
6218;BME280;3142;48.206;11.550;2023-02-23T05:48:56;95383.28;;;10.37;66.12
6218;BME280;3142;48.206;11.550;2023-02-23T05:51:23;95384.28;;;10.43;66.07
6218;BME280;3142;48.206;11.550;2023-02-23T05:53:49;95381.69;;;10.36;66.16
6218;BME280;3142;48.206;11.550;2023-02-23T05:56:17;95382.47;;;10.44;66.42
6218;BME280;3142;48.206;11.550;2023-02-23T05:58:46;95390.53;;;10.42;65.97
6218;BME280;3142;48.206;11.550;2023-02-23T06:01:13;95393.34;;;10.41;66.43
6218;BME280;3142;48.206;11.550;2023-02-23T06:03:39;95389.53;;;10.43;65.94
6218;BME280;3142;48.206;11.550;2023-02-23T06:06:06;95394.97;;;10.42;66.39
6218;BME280;3142;48.206;11.550;2023-02-23T06:08:32;95387.72;;;10.44;66.55
6218;BME280;3142;48.206;11.550;2023-02-23T06:10:59;95386.88;;;10.50;66.68
6218;BME280;3142;48.206;11.550;2023-02-23T06:13:25;95397.34;;;10.50;66.28
6218;BME280;3142;48.206;11.550;2023-02-23T06:15:54;95392.72;;;10.45;66.71
6218;BME280;3142;48.206;11.550;2023-02-23T06:18:20;95397.53;;;10.48;66.72
6218;BME280;3142;48.206;11.550;2023-02-23T06:20:47;95392.09;;;10.50;66.57
6218;BME280;3142;48.206;11.550;2023-02-23T06:23:13;95396.91;;;10.53;66.35
6218;BME280;3142;48.206;11.550;2023-02-23T06:25:41;95397.13;;;10.58;66.20
6218;BME280;3142;48.206;11.550;2023-02-23T06:28:08;95402.72;;;10.61;66.31
6218;BME280;3142;48.206;11.550;2023-02-23T06:30:36;95401.50;;;10.64;65.63
6218;BME280;3142;48.206;11.550;2023-02-23T06:33:04;95409.34;;;10.64;66.23
6218;BME280;3142;48.206;11.550;2023-02-23T06:35:31;95405.78;;;10.58;66.14
6218;BME280;3142;48.206;11.550;2023-02-23T06:37:58;95415.22;;;10.53;66.74
6218;BME280;3142;48.206;11.550;2023-02-23T06:40:25;95413.19;;;10.55;66.36
6218;BME280;3142;48.206;11.550;2023-02-23T06:42:51;95424.50;;;10.49;66.89
6218;BME280;3142;48.206;11.550;2023-02-23T06:45:18;95426.53;;;10.47;66.93
6218;BME280;3142;48.206;11.550;2023-02-23T06:47:45;95427.31;;;10.41;67.23
6218;BME280;3142;48.206;11.550;2023-02-23T06:50:13;95424.31;;;10.37;66.83
6218;BME280;3142;48.206;11.550;2023-02-23T06:52:39;95420.53;;;10.33;66.97
6218;BME280;3142;48.206;11.550;2023-02-23T06:55:07;95425.34;;;10.36;67.50
6218;BME280;3142;48.206;11.550;2023-02-23T06:57:34;95434.59;;;10.32;66.81
6218;BME280;3142;48.206;11.550;2023-02-23T07:00:01;95426.34;;;10.35;67.32
6218;BME280;3142;48.206;11.550;2023-02-23T07:02:27;95430.34;;;10.37;67.62
6218;BME280;3142;48.206;11.550;2023-02-23T07:04:54;95432.19;;;10.44;66.99
6218;BME280;3142;48.206;11.550;2023-02-23T07:07:22;95434.19;;;10.42;67.53
6218;BME280;3142;48.206;11.550;2023-02-23T07:09:48;95426.53;;;10.40;67.16
6218;BME280;3142;48.206;11.550;2023-02-23T07:12:15;95439.59;;;10.40;67.68
6218;BME280;3142;48.206;11.550;2023-02-23T07:14:41;95442.00;;;10.48;68.03
6218;BME280;3142;48.206;11.550;2023-02-23T07:17:07;95443.81;;;10.48;67.64
6218;BME280;3142;48.206;11.550;2023-02-23T07:19:34;95442.41;;;10.52;67.67
6218;BME280;3142;48.206;11.550;2023-02-23T07:22:00;95433.16;;;10.49;67.41
6218;BME280;3142;48.206;11.550;2023-02-23T07:24:29;95437.97;;;10.52;67.78
6218;BME280;3142;48.206;11.550;2023-02-23T07:26:55;95438.38;;;10.56;67.71
6218;BME280;3142;48.206;11.550;2023-02-23T07:29:22;95441.59;;;10.58;67.78
6218;BME280;3142;48.206;11.550;2023-02-23T07:31:49;95442.19;;;10.60;67.85
6218;BME280;3142;48.206;11.550;2023-02-23T07:34:15;95442.38;;;10.58;67.90
6218;BME280;3142;48.206;11.550;2023-02-23T07:36:42;95430.53;;;10.56;67.69
6218;BME280;3142;48.206;11.550;2023-02-23T07:39:08;95433.75;;;10.58;67.83
6218;BME280;3142;48.206;11.550;2023-02-23T07:41:36;95431.94;;;10.58;67.90
6218;BME280;3142;48.206;11.550;2023-02-23T07:44:03;95439.53;;;10.66;67.92
6218;BME280;3142;48.206;11.550;2023-02-23T07:46:29;95436.31;;;10.71;67.71
6218;BME280;3142;48.206;11.550;2023-02-23T07:48:55;95440.31;;;10.74;67.77
6218;BME280;3142;48.206;11.550;2023-02-23T07:51:22;95440.28;;;10.80;68.23
6218;BME280;3142;48.206;11.550;2023-02-23T07:53:48;95437.06;;;10.85;68.07
6218;BME280;3142;48.206;11.550;2023-02-23T07:56:15;95447.53;;;10.85;67.88
6218;BME280;3142;48.206;11.550;2023-02-23T07:58:43;95445.13;;;10.83;68.51
6218;BME280;3142;48.206;11.550;2023-02-23T08:01:11;95443.91;;;10.86;68.07
6218;BME280;3142;48.206;11.550;2023-02-23T08:03:37;95446.69;;;10.91;68.28
6218;BME280;3142;48.206;11.550;2023-02-23T08:06:04;95451.28;;;10.95;68.17
6218;BME280;3142;48.206;11.550;2023-02-23T08:08:31;95446.47;;;10.99;67.89
6218;BME280;3142;48.206;11.550;2023-02-23T08:10:58;95444.59;;;11.06;67.86
6218;BME280;3142;48.206;11.550;2023-02-23T08:13:25;95443.56;;;11.14;68.10
6218;BME280;3142;48.206;11.550;2023-02-23T08:15:53;95450.22;;;11.16;67.83
6218;BME280;3142;48.206;11.550;2023-02-23T08:18:19;95449.56;;;11.21;68.10
6218;BME280;3142;48.206;11.550;2023-02-23T08:20:46;95439.31;;;11.19;68.00
6218;BME280;3142;48.206;11.550;2023-02-23T08:23:12;95450.59;;;11.20;68.17
6218;BME280;3142;48.206;11.550;2023-02-23T08:25:38;95455.03;;;11.19;68.58
6218;BME280;3142;48.206;11.550;2023-02-23T08:28:05;95450.78;;;11.25;68.57
6218;BME280;3142;48.206;11.550;2023-02-23T08:30:32;95447.72;;;11.28;68.33
6218;BME280;3142;48.206;11.550;2023-02-23T08:33:00;95447.00;;;11.08;69.35
6218;BME280;3142;48.206;11.550;2023-02-23T08:35:27;95446.94;;;11.21;69.30
6218;BME280;3142;48.206;11.550;2023-02-23T08:37:56;95441.69;;;11.27;69.55
6218;BME280;3142;48.206;11.550;2023-02-23T08:40:23;95447.28;;;11.38;68.72
6218;BME280;3142;48.206;11.550;2023-02-23T08:42:49;95446.00;;;11.47;68.94
6218;BME280;3142;48.206;11.550;2023-02-23T08:45:17;95448.38;;;11.55;68.81
6218;BME280;3142;48.206;11.550;2023-02-23T08:47:44;95443.50;;;11.58;68.92
6218;BME280;3142;48.206;11.550;2023-02-23T08:50:14;95443.47;;;11.65;69.21
6218;BME280;3142;48.206;11.550;2023-02-23T08:52:41;95445.66;;;11.68;69.14
6218;BME280;3142;48.206;11.550;2023-02-23T08:55:09;95438.75;;;11.74;68.87
6218;BME280;3142;48.206;11.550;2023-02-23T08:57:38;95443.19;;;11.73;68.66
6218;BME280;3142;48.206;11.550;2023-02-23T09:00:05;95441.38;;;11.80;69.03
6218;BME280;3142;48.206;11.550;2023-02-23T09:02:38;95437.31;;;11.84;68.39
6218;BME280;3142;48.206;11.550;2023-02-23T09:05:06;95447.78;;;11.84;68.71
6218;BME280;3142;48.206;11.550;2023-02-23T09:07:34;95437.84;;;11.93;69.11
6218;BME280;3142;48.206;11.550;2023-02-23T09:10:00;95440.03;;;11.96;68.92
6218;BME280;3142;48.206;11.550;2023-02-23T09:12:27;95433.69;;;12.04;68.91
6218;BME280;3142;48.206;11.550;2023-02-23T09:14:53;95442.91;;;12.13;68.92
6218;BME280;3142;48.206;11.550;2023-02-23T09:17:20;95438.41;;;12.20;68.30
6218;BME280;3142;48.206;11.550;2023-02-23T09:19:47;95435.63;;;12.15;68.92
6218;BME280;3142;48.206;11.550;2023-02-23T09:22:14;95445.06;;;12.23;68.54
6218;BME280;3142;48.206;11.550;2023-02-23T09:24:44;95438.78;;;12.24;68.12
6218;BME280;3142;48.206;11.550;2023-02-23T09:27:10;95449.63;;;12.27;68.69
6218;BME280;3142;48.206;11.550;2023-02-23T09:29:37;95454.53;;;12.24;68.32
6218;BME280;3142;48.206;11.550;2023-02-23T09:32:05;95452.47;;;12.26;68.30
6218;BME280;3142;48.206;11.550;2023-02-23T09:34:32;95451.53;;;12.20;68.68
6218;BME280;3142;48.206;11.550;2023-02-23T09:36:59;95448.69;;;12.22;69.05
6218;BME280;3142;48.206;11.550;2023-02-23T09:39:27;95452.91;;;12.23;69.29
6218;BME280;3142;48.206;11.550;2023-02-23T09:42:02;95453.31;;;12.20;68.59
6218;BME280;3142;48.206;11.550;2023-02-23T09:44:42;95454.19;;;12.13;68.85
6218;BME280;3142;48.206;11.550;2023-02-23T09:47:23;95454.19;;;12.13;69.27
6218;BME280;3142;48.206;11.550;2023-02-23T09:49:54;95454.19;;;12.13;68.88
6218;BME280;3142;48.206;11.550;2023-02-23T09:52:26;95452.16;;;12.15;68.81
6218;BME280;3142;48.206;11.550;2023-02-23T09:54:53;95458.78;;;12.18;69.65
6218;BME280;3142;48.206;11.550;2023-02-23T09:57:26;95457.59;;;12.21;68.66
6218;BME280;3142;48.206;11.550;2023-02-23T09:59:55;95465.59;;;12.26;69.78
6218;BME280;3142;48.206;11.550;2023-02-23T10:02:23;95462.75;;;12.27;68.91
6218;BME280;3142;48.206;11.550;2023-02-23T10:04:58;95459.69;;;12.30;69.53
6218;BME280;3142;48.206;11.550;2023-02-23T10:07:33;95458.63;;;12.38;69.04
6218;BME280;3142;48.206;11.550;2023-02-23T10:10:14;95462.91;;;12.32;69.32
6218;BME280;3142;48.206;11.550;2023-02-23T10:12:49;95459.78;;;12.42;68.71
6218;BME280;3142;48.206;11.550;2023-02-23T10:15:25;95468.63;;;12.48;69.23
6218;BME280;3142;48.206;11.550;2023-02-23T10:18:00;95461.34;;;12.50;68.24
6218;BME280;3142;48.206;11.550;2023-02-23T10:20:33;95455.50;;;12.48;68.54
6218;BME280;3142;48.206;11.550;2023-02-23T10:23:03;95457.91;;;12.49;68.92
6218;BME280;3142;48.206;11.550;2023-02-23T10:25:34;95460.09;;;12.52;68.30
6218;BME280;3142;48.206;11.550;2023-02-23T10:28:09;95459.88;;;12.54;67.86
6218;BME280;3142;48.206;11.550;2023-02-23T10:30:39;95468.19;;;12.51;67.69
6218;BME280;3142;48.206;11.550;2023-02-23T10:33:12;95464.75;;;12.50;68.64
6218;BME280;3142;48.206;11.550;2023-02-23T10:35:40;95465.78;;;12.49;67.35
6218;BME280;3142;48.206;11.550;2023-02-23T10:38:07;95459.94;;;12.47;68.60
6218;BME280;3142;48.206;11.550;2023-02-23T10:40:40;95459.94;;;12.47;68.06
6218;BME280;3142;48.206;11.550;2023-02-23T10:43:10;95464.81;;;12.43;67.53
6218;BME280;3142;48.206;11.550;2023-02-23T10:45:42;95457.91;;;12.49;68.67
6218;BME280;3142;48.206;11.550;2023-02-23T10:48:15;95455.78;;;12.58;67.81
6218;BME280;3142;48.206;11.550;2023-02-23T10:50:43;95459.78;;;12.60;66.84
6218;BME280;3142;48.206;11.550;2023-02-23T10:53:13;95458.19;;;12.59;68.04
6218;BME280;3142;48.206;11.550;2023-02-23T10:55:43;95455.16;;;12.62;67.13
6218;BME280;3142;48.206;11.550;2023-02-23T10:58:13;95455.16;;;12.62;66.68
6218;BME280;3142;48.206;11.550;2023-02-23T11:00:50;95456.59;;;12.58;67.36
6218;BME280;3142;48.206;11.550;2023-02-23T11:03:22;95454.41;;;12.55;67.26
6218;BME280;3142;48.206;11.550;2023-02-23T11:05:50;95458.06;;;12.54;67.29
6218;BME280;3142;48.206;11.550;2023-02-23T11:08:21;95456.00;;;12.56;67.37
6218;BME280;3142;48.206;11.550;2023-02-23T11:10:59;95452.00;;;12.54;68.15
6218;BME280;3142;48.206;11.550;2023-02-23T11:13:32;95452.09;;;12.65;66.62
6218;BME280;3142;48.206;11.550;2023-02-23T11:16:01;95454.34;;;12.80;66.84
6218;BME280;3142;48.206;11.550;2023-02-23T11:18:28;95444.72;;;12.92;66.89
6218;BME280;3142;48.206;11.550;2023-02-23T11:20:56;95448.09;;;13.11;65.07
6218;BME280;3142;48.206;11.550;2023-02-23T11:23:24;95443.88;;;13.28;64.52
6218;BME280;3142;48.206;11.550;2023-02-23T11:25:54;95443.13;;;13.40;64.04
6218;BME280;3142;48.206;11.550;2023-02-23T11:28:24;95439.72;;;13.51;63.73
6218;BME280;3142;48.206;11.550;2023-02-23T11:30:56;95432.75;;;13.56;65.00
6218;BME280;3142;48.206;11.550;2023-02-23T11:33:27;95420.22;;;13.70;63.32
6218;BME280;3142;48.206;11.550;2023-02-23T11:35:59;95424.97;;;13.50;64.27
6218;BME280;3142;48.206;11.550;2023-02-23T11:38:37;95421.25;;;13.57;63.69
6218;BME280;3142;48.206;11.550;2023-02-23T11:41:09;95414.16;;;13.70;64.05
6218;BME280;3142;48.206;11.550;2023-02-23T11:43:47;95414.78;;;13.95;63.17
6218;BME280;3142;48.206;11.550;2023-02-23T11:46:14;95409.06;;;14.10;62.06
6218;BME280;3142;48.206;11.550;2023-02-23T11:48:47;95409.75;;;14.40;62.04
6218;BME280;3142;48.206;11.550;2023-02-23T11:51:22;95408.63;;;14.48;62.01
6218;BME280;3142;48.206;11.550;2023-02-23T11:53:50;95402.53;;;14.36;61.87
6218;BME280;3142;48.206;11.550;2023-02-23T11:56:19;95400.13;;;14.34;62.13
6218;BME280;3142;48.206;11.550;2023-02-23T11:58:48;95399.09;;;14.23;62.09
6218;BME280;3142;48.206;11.550;2023-02-23T12:01:20;95395.69;;;14.00;62.10
6218;BME280;3142;48.206;11.550;2023-02-23T12:03:51;95393.38;;;13.91;63.04
6218;BME280;3142;48.206;11.550;2023-02-23T12:06:27;95393.06;;;13.88;62.95
6218;BME280;3142;48.206;11.550;2023-02-23T12:08:58;95396.22;;;13.78;63.59
6218;BME280;3142;48.206;11.550;2023-02-23T12:11:31;95389.34;;;13.66;63.75
6218;BME280;3142;48.206;11.550;2023-02-23T12:14:02;95388.91;;;13.69;64.34
6218;BME280;3142;48.206;11.550;2023-02-23T12:16:36;95384.69;;;13.91;64.03
6218;BME280;3142;48.206;11.550;2023-02-23T12:19:14;95382.31;;;14.01;62.63
6218;BME280;3142;48.206;11.550;2023-02-23T12:21:47;95376.91;;;14.08;61.85
6218;BME280;3142;48.206;11.550;2023-02-23T12:24:22;95380.34;;;14.08;62.07
6218;BME280;3142;48.206;11.550;2023-02-23T12:26:55;95376.25;;;14.12;61.46
6218;BME280;3142;48.206;11.550;2023-02-23T12:29:28;95372.59;;;14.13;62.26
6218;BME280;3142;48.206;11.550;2023-02-23T12:31:59;95373.38;;;14.14;62.72
6218;BME280;3142;48.206;11.550;2023-02-23T12:34:32;95366.84;;;14.16;62.32
6218;BME280;3142;48.206;11.550;2023-02-23T12:37:08;95366.53;;;14.01;61.71
6218;BME280;3142;48.206;11.550;2023-02-23T12:39:42;95373.03;;;13.87;62.02
6218;BME280;3142;48.206;11.550;2023-02-23T12:42:14;95372.91;;;13.82;62.34
6218;BME280;3142;48.206;11.550;2023-02-23T12:44:50;95380.13;;;13.75;61.90
6218;BME280;3142;48.206;11.550;2023-02-23T12:47:23;95371.75;;;13.66;62.05
6218;BME280;3142;48.206;11.550;2023-02-23T12:49:56;95376.66;;;13.62;63.10
6218;BME280;3142;48.206;11.550;2023-02-23T12:52:37;95367.44;;;13.72;62.65
6218;BME280;3142;48.206;11.550;2023-02-23T12:55:09;95369.38;;;13.76;63.45
6218;BME280;3142;48.206;11.550;2023-02-23T12:57:41;95367.56;;;13.88;62.47
6218;BME280;3142;48.206;11.550;2023-02-23T13:00:29;95362.84;;;13.90;62.98
6218;BME280;3142;48.206;11.550;2023-02-23T13:03:14;95361.16;;;13.73;63.17
6218;BME280;3142;48.206;11.550;2023-02-23T13:05:44;95368.47;;;13.71;63.57
6218;BME280;3142;48.206;11.550;2023-02-23T13:08:18;95355.50;;;13.69;64.67
6218;BME280;3142;48.206;11.550;2023-02-23T13:10:54;95352.47;;;13.72;63.68
6218;BME280;3142;48.206;11.550;2023-02-23T13:13:30;95357.34;;;13.80;64.09
6218;BME280;3142;48.206;11.550;2023-02-23T13:16:06;95353.03;;;13.86;63.43
6218;BME280;3142;48.206;11.550;2023-02-23T13:18:38;95351.63;;;13.95;63.21
6218;BME280;3142;48.206;11.550;2023-02-23T13:21:10;95356.66;;;13.97;63.69
6218;BME280;3142;48.206;11.550;2023-02-23T13:23:43;95361.59;;;14.05;63.50
6218;BME280;3142;48.206;11.550;2023-02-23T13:26:20;95351.41;;;14.08;62.86
6218;BME280;3142;48.206;11.550;2023-02-23T13:28:55;95355.63;;;13.98;62.90
6218;BME280;3142;48.206;11.550;2023-02-23T13:31:25;95353.84;;;13.98;62.78
6218;BME280;3142;48.206;11.550;2023-02-23T13:33:57;95354.19;;;14.02;62.96